Terminal Aerodrome Forecast
Issued by NWS

Current Version | Previous Version | Graphics & Text | Print | Product List | Glossary On
Versions: 1 2 3 4 5 6 7 8 9 10 11 12 13 14 15 16 17 18
724
FTUS41 KILN 122332
TAFLUK
TAF
KLUK 122332Z 1300/1324 29012G24KT P6SM -SHSN BKN025
      TEMPO 1301/1304 31014G28KT 4SM -SHSN
     FM130600 32010KT P6SM BKN025
     FM132100 30008KT P6SM SCT035=

USA.gov is the U.S. government's official web portal to all federal, state and local government web resources and services.